الصفحة الرئيسية
METAR-TAF:

METAR-TAF

مطار :

سانت لويس, السنغال

دائرة عرض: 16-03N, خط طول: 016-27W, ارتفاع: 4 متر

مراقبة الطقس الحالي

تاريخ ووقت الإصدار 59 دقيقة قبل الساعة 17:00UTC
ريح 6 عقدة من الشرق/الشمال الشرقي, الاتجاه يتراوح بين الشمال و الشرق/الجنوب الشرقي
درجة الحرارة 39°درجة مئوية
الرطوبة 13%
ضغط 1008 hPa
الرؤية: 4000 متر
غبار,

METAR: GOSS 161700Z 06006KT 350V110 4000 DU NSC 39/06 Q1008

زمن: 17:59 (17:59 UTC)

توقعات

تاريخ ووقت الإصدار 59 دقيقة قبل الساعة 17:00UTC
التوقعات صالحة من16 الساعة 18 UTC إلى 17 الساعة 18 UTC
ريح 8 عقدة من الشمال
الرؤية: 6000 متر

TAF: GOSS 161700Z 1618/1718 36008KT 6000 NSC

أرصاد الطقس والتوقعات من أكثر من 4000 مطار (تقارير الطقس للمطار METAR والتنبؤ بالطقس بالمطارTAF).

المحطات المتاحة هي النقط الصفراء والحمراء على الخريطة.

حرك المؤشر فوق النقطة لمعرفة اسم المحطة.

ثم انقر لمعرفة أرصاد وتوقعات الطقس.

لتغيير الخارطة: اضغط على الأزرار الخضراء مع رمز الصليب الأسود للتكبير. على الزر الأخضر مع شرطة للتصغير، أو على الأسهم الخضراء للخرائط المجاورة.


METAR-TAF: